createdAt,value
2023-08-12T00:00:01.708Z,101146.09
2023-08-12T00:00:33.811Z,101150.44
2023-08-12T00:01:05.944Z,101146.94
2023-08-12T00:01:38.011Z,101143.59
2023-08-12T00:02:10.030Z,101149.00
2023-08-12T00:02:42.596Z,101143.88
2023-08-12T00:03:14.866Z,101140.38
2023-08-12T00:03:47.141Z,101142.19
2023-08-12T00:04:19.219Z,101154.78
2023-08-12T00:04:51.229Z,101151.41
2023-08-12T00:05:23.454Z,101143.50
2023-08-12T00:05:55.633Z,101146.03
2023-08-12T00:06:27.693Z,101148.78
2023-08-12T00:06:59.684Z,101143.50
2023-08-12T00:07:31.724Z,101149.72
2023-08-12T00:08:04.153Z,101151.66
2023-08-12T00:08:36.192Z,101146.50
2023-08-12T00:09:08.506Z,101155.16
2023-08-12T00:09:40.551Z,101143.50
2023-08-12T00:10:14.016Z,101148.06
2023-08-12T00:10:46.025Z,101151.66
2023-08-12T00:11:19.414Z,101145.53
2023-08-12T00:11:51.383Z,101148.28
2023-08-12T00:12:23.614Z,101151.66
2023-08-12T00:12:55.605Z,101155.25
2023-08-12T00:13:27.634Z,101151.78
2023-08-12T00:13:59.671Z,101158.75
2023-08-12T00:14:31.689Z,101140.38
2023-08-12T00:15:04.796Z,101148.28
2023-08-12T00:15:36.889Z,101149.28
2023-08-12T00:16:09.003Z,101149.50
2023-08-12T00:16:41.044Z,101149.50
2023-08-12T00:17:13.232Z,101143.28
2023-08-12T00:17:45.395Z,101147.59
2023-08-12T00:18:17.500Z,101148.69
2023-08-12T00:18:49.477Z,101145.44
2023-08-12T00:19:21.604Z,101146.41
2023-08-12T00:19:53.654Z,101145.56
2023-08-12T00:20:25.713Z,101143.78
2023-08-12T00:20:57.785Z,101141.97
2023-08-12T00:21:29.853Z,101133.56
2023-08-12T00:22:01.927Z,101147.47
2023-08-12T00:22:34.045Z,101146.78
2023-08-12T00:23:06.412Z,101147.63
2023-08-12T00:23:39.968Z,101150.25
2023-08-12T00:24:12.114Z,101142.19
2023-08-12T00:24:44.271Z,101147.63
2023-08-12T00:25:16.612Z,101148.47
2023-08-12T00:25:50.937Z,101136.47
2023-08-12T00:26:24.401Z,101148.09
2023-08-12T00:26:56.461Z,101144.50
2023-08-12T00:27:28.652Z,101143.66
2023-08-12T00:28:00.707Z,101145.09
2023-08-12T00:28:33.219Z,101144.84
2023-08-12T00:29:05.230Z,101144.97
2023-08-12T00:29:37.599Z,101136.69
2023-08-12T00:30:10.132Z,101141.84
2023-08-12T00:30:42.143Z,101138.25
2023-08-12T00:31:14.174Z,101142.56
2023-08-12T00:31:46.296Z,101140.63
2023-08-12T00:32:18.364Z,101146.75
2023-08-12T00:32:50.492Z,101144.00
2023-08-12T00:33:22.621Z,101139.56
2023-08-12T00:33:54.590Z,101146.28
2023-08-12T00:34:26.700Z,101140.84
2023-08-12T00:34:58.751Z,101135.47
2023-08-12T00:35:30.831Z,101140.50
2023-08-12T00:36:03.016Z,101136.06
2023-08-12T00:36:35.076Z,101137.84
2023-08-12T00:37:07.287Z,101131.72
2023-08-12T00:37:39.318Z,101137.75
2023-08-12T00:38:11.451Z,101140.22
2023-08-12T00:38:43.499Z,101136.63
2023-08-12T00:39:15.528Z,101138.44
2023-08-12T00:39:47.640Z,101134.94
2023-08-12T00:40:19.792Z,101137.75
2023-08-12T00:40:51.978Z,101135.09
2023-08-12T00:41:25.443Z,101138.44
2023-08-12T00:41:57.528Z,101136.75
2023-08-12T00:42:29.604Z,101137.75
2023-08-12T00:43:01.707Z,101139.66
2023-08-12T00:43:33.853Z,101132.56
2023-08-12T00:44:06.339Z,101138.81
2023-08-12T00:44:38.459Z,101135.47
2023-08-12T00:45:11.813Z,101133.53
2023-08-12T00:45:44.293Z,101138.94
2023-08-12T00:46:16.743Z,101135.56
2023-08-12T00:46:49.829Z,101130.53
2023-08-12T00:47:22.144Z,101134.72
2023-08-12T00:47:54.812Z,101135.81
2023-08-12T00:48:27.111Z,101148.19
2023-08-12T00:48:59.317Z,101141.22
2023-08-12T00:49:33.587Z,101144.69
2023-08-12T00:50:06.982Z,101132.44
2023-08-12T00:50:41.455Z,101144.00
2023-08-12T00:51:13.612Z,101138.84
2023-08-12T00:51:47.006Z,101127.56
2023-08-12T00:52:19.822Z,101140.88
2023-08-12T00:52:52.328Z,101134.88
2023-08-12T00:53:24.719Z,101139.19
2023-08-12T00:53:59.689Z,101129.84
2023-08-12T00:54:31.905Z,101132.13
2023-08-12T00:55:04.698Z,101131.28
2023-08-12T00:55:37.234Z,101131.28
2023-08-12T00:56:09.260Z,101127.78
2023-08-12T00:56:43.828Z,101117.38
2023-08-12T00:57:16.429Z,101130.56
2023-08-12T00:57:49.035Z,101126.94
2023-08-12T00:58:21.056Z,101125.28
2023-08-12T00:58:53.602Z,101129.59
2023-08-12T00:59:27.225Z,101121.56
2023-08-12T01:00:00.627Z,101117.38
2023-08-12T01:00:33.200Z,101126.25
2023-08-12T01:01:05.525Z,101127.09
2023-08-12T01:01:41.082Z,101123.13
2023-08-12T01:02:13.650Z,101125.31
2023-08-12T01:02:47.274Z,101127.13
2023-08-12T01:03:19.762Z,101128.06
2023-08-12T01:03:53.214Z,101126.28
2023-08-12T01:04:25.354Z,101120.25
2023-08-12T01:04:57.467Z,101128.19
2023-08-12T01:05:31.300Z,101121.09
2023-08-12T01:06:04.134Z,101120.50
2023-08-12T01:06:36.254Z,101131.19
2023-08-12T01:07:08.278Z,101127.84
2023-08-12T01:07:40.426Z,101126.50
2023-08-12T01:08:12.507Z,101131.91
2023-08-12T01:08:47.156Z,101124.19
2023-08-12T01:09:19.638Z,101128.66
2023-08-12T01:09:51.817Z,101133.72
2023-08-12T01:10:28.305Z,101125.81
2023-08-12T01:11:17.676Z,101140.88
2023-08-12T01:11:58.855Z,101139.44
2023-08-12T01:12:38.026Z,101138.84
2023-08-12T01:13:20.764Z,101142.31
2023-08-12T01:14:00.847Z,101140.63
2023-08-12T01:14:43.865Z,101147.00
2023-08-12T01:15:21.450Z,101147.25
2023-08-12T01:15:56.623Z,101154.31
2023-08-12T01:16:33.876Z,101154.56
2023-08-12T01:17:10.573Z,101152.03
2023-08-12T01:17:44.209Z,101153.81
2023-08-12T01:18:17.296Z,101155.50
2023-08-12T01:18:51.125Z,101161.03
2023-08-12T01:19:31.144Z,101156.09
2023-08-12T01:20:04.244Z,101157.16
2023-08-12T01:20:37.550Z,101163.41
2023-08-12T01:21:16.460Z,101159.34
2023-08-12T01:21:54.081Z,101155.97
2023-08-12T01:22:28.524Z,101161.13
2023-08-12T01:23:11.374Z,101166.41
2023-08-12T01:23:43.635Z,101158.72
2023-08-12T01:24:15.674Z,101161.22
2023-08-12T01:24:47.860Z,101152.97
2023-08-12T01:25:20.033Z,101161.13
2023-08-12T01:25:52.019Z,101159.53
2023-08-12T01:26:24.082Z,101159.44
2023-08-12T01:26:56.214Z,101155.84
2023-08-12T01:27:28.232Z,101159.31
2023-08-12T01:28:00.277Z,101164.69
2023-08-12T01:28:32.310Z,101160.38
2023-08-12T01:29:04.768Z,101159.31
2023-08-12T01:29:40.729Z,101163.50
2023-08-12T01:30:13.687Z,101159.06
2023-08-12T01:30:54.261Z,101158.47
2023-08-12T01:31:35.068Z,101162.56
2023-08-12T01:32:13.421Z,101162.31
2023-08-12T01:32:55.165Z,101160.63
2023-08-12T01:33:39.611Z,101163.25
2023-08-12T01:34:18.668Z,101160.28
2023-08-12T01:34:58.670Z,101164.47
2023-08-12T01:35:37.193Z,101164.38
2023-08-12T01:36:13.761Z,101164.25
2023-08-12T01:36:50.705Z,101164.84
2023-08-12T01:37:26.313Z,101162.44
2023-08-12T01:38:03.692Z,101164.38
2023-08-12T01:38:40.858Z,101158.34
2023-08-12T01:39:13.456Z,101167.09
2023-08-12T01:39:48.036Z,101161.72
2023-08-12T01:40:20.896Z,101158.97
2023-08-12T01:40:54.903Z,101162.94
2023-08-12T01:41:27.551Z,101163.41
2023-08-12T01:42:00.536Z,101153.72
2023-08-12T01:42:34.923Z,101156.09
2023-08-12T01:43:07.226Z,101154.81
2023-08-12T01:43:40.286Z,101167.00
2023-08-12T01:44:12.865Z,101162.97
2023-08-12T01:44:45.059Z,101158.16
2023-08-12T01:45:19.078Z,101157.81
2023-08-12T01:45:51.393Z,101158.41
2023-08-12T01:46:23.673Z,101155.66
2023-08-12T01:46:56.038Z,101160.09
2023-08-12T01:47:28.300Z,101152.19
2023-08-12T01:48:00.510Z,101158.91
2023-08-12T01:48:32.679Z,101149.78
2023-08-12T01:49:05.184Z,101152.06
2023-08-12T01:49:37.237Z,101152.91
2023-08-12T01:50:10.034Z,101153.59
2023-08-12T01:50:42.121Z,101155.03
2023-08-12T01:51:14.156Z,101149.66
2023-08-12T01:51:46.238Z,101151.34
2023-08-12T01:52:18.335Z,101151.19
2023-08-12T01:52:50.369Z,101152.16
2023-08-12T01:53:22.472Z,101143.28
2023-08-12T01:53:55.959Z,101147.72
2023-08-12T01:54:28.025Z,101153.56
2023-08-12T01:55:00.200Z,101148.06
2023-08-12T01:55:32.319Z,101149.03
2023-08-12T01:56:04.653Z,101148.91
2023-08-12T01:56:36.713Z,101151.41
2023-08-12T01:57:08.902Z,101141.59
2023-08-12T01:57:41.310Z,101136.41
2023-08-12T01:58:13.359Z,101140.22
2023-08-12T01:58:45.486Z,101143.72
2023-08-12T01:59:17.555Z,101143.47
2023-08-12T01:59:49.688Z,101146.00
2023-08-12T02:00:21.840Z,101144.31
2023-08-12T02:00:53.956Z,101140.72
2023-08-12T02:01:26.047Z,101146.84
2023-08-12T02:01:58.078Z,101141.41
2023-08-12T02:02:30.249Z,101139.63
2023-08-12T02:03:02.529Z,101144.53
2023-08-12T02:03:34.746Z,101147.16
2023-08-12T02:04:07.152Z,101145.25
2023-08-12T02:04:40.108Z,101142.47
2023-08-12T02:05:12.166Z,101144.66
2023-08-12T02:05:44.140Z,101151.25
2023-08-12T02:06:16.179Z,101143.47
2023-08-12T02:06:48.228Z,101141.78
2023-08-12T02:07:20.235Z,101140.94
2023-08-12T02:07:52.387Z,101146.47
2023-08-12T02:08:24.518Z,101144.78
2023-08-12T02:08:58.035Z,101144.53
2023-08-12T02:09:30.126Z,101141.03
2023-08-12T02:10:02.234Z,101140.34
2023-08-12T02:10:34.309Z,101143.31
2023-08-12T02:11:06.377Z,101141.63
2023-08-12T02:11:38.528Z,101138.19
2023-08-12T02:12:10.833Z,101150.41
2023-08-12T02:12:42.894Z,101142.47
2023-08-12T02:13:14.892Z,101137.91
2023-08-12T02:13:46.918Z,101137.78
2023-08-12T02:14:18.893Z,101144.75
2023-08-12T02:14:50.887Z,101148.22
2023-08-12T02:15:22.934Z,101144.41
2023-08-12T02:15:55.007Z,101140.19
2023-08-12T02:16:27.155Z,101145.75
2023-08-12T02:16:59.280Z,101144.78
2023-08-12T02:17:31.293Z,101137.69
2023-08-12T02:18:03.703Z,101139.63
2023-08-12T02:18:35.776Z,101139.88
2023-08-12T02:19:08.025Z,101138.91
2023-08-12T02:19:40.074Z,101139.03
2023-08-12T02:20:12.571Z,101135.94
2023-08-12T02:20:44.593Z,101131.72
2023-08-12T02:21:16.600Z,101137.00
2023-08-12T02:21:48.620Z,101135.22
2023-08-12T02:22:20.660Z,101133.53
2023-08-12T02:22:52.866Z,101125.50
2023-08-12T02:23:24.976Z,101134.94
2023-08-12T02:23:58.745Z,101136.28
2023-08-12T02:24:30.852Z,101138.31
2023-08-12T02:25:02.985Z,101135.78
2023-08-12T02:25:35.046Z,101134.94
2023-08-12T02:26:07.125Z,101139.53
2023-08-12T02:26:39.525Z,101135.78
2023-08-12T02:27:11.781Z,101138.81
2023-08-12T02:27:43.944Z,101132.56
2023-08-12T02:28:15.950Z,101143.13
2023-08-12T02:28:48.046Z,101134.50
2023-08-12T02:29:20.079Z,101134.63
2023-08-12T02:29:52.241Z,101131.03
2023-08-12T02:30:24.413Z,101131.25
2023-08-12T02:30:56.418Z,101130.28
2023-08-12T02:31:28.458Z,101137.25
2023-08-12T02:32:00.622Z,101136.91
2023-08-12T02:32:32.912Z,101130.03
2023-08-12T02:33:05.435Z,101129.09
2023-08-12T02:33:37.989Z,101128.13
2023-08-12T02:34:09.983Z,101132.81
2023-08-12T02:34:42.237Z,101127.78
2023-08-12T02:35:14.349Z,101128.75
2023-08-12T02:35:46.344Z,101133.28
2023-08-12T02:36:18.365Z,101132.22
2023-08-12T02:36:50.378Z,101131.88
2023-08-12T02:37:22.390Z,101133.06
2023-08-12T02:37:54.399Z,101129.34
2023-08-12T02:38:26.403Z,101127.78
2023-08-12T02:38:59.828Z,101125.84
2023-08-12T02:39:31.880Z,101124.91
2023-08-12T02:40:05.293Z,101125.84
2023-08-12T02:40:37.281Z,101128.38
2023-08-12T02:41:09.340Z,101131.63
2023-08-12T02:41:41.390Z,101122.84
2023-08-12T02:42:13.408Z,101122.84
2023-08-12T02:42:45.485Z,101125.50
2023-08-12T02:43:17.872Z,101126.44
2023-08-12T02:43:49.969Z,101128.97
2023-08-12T02:44:22.042Z,101126.44
2023-08-12T02:44:54.017Z,101132.47
2023-08-12T02:45:26.094Z,101132.31
2023-08-12T02:45:58.165Z,101128.81
2023-08-12T02:46:30.290Z,101132.91
2023-08-12T02:47:02.453Z,101129.94
2023-08-12T02:47:34.591Z,101130.03
2023-08-12T02:48:07.343Z,101128.50
2023-08-12T02:48:39.454Z,101138.81
2023-08-12T02:49:11.494Z,101132.69
2023-08-12T02:49:43.772Z,101135.22
2023-08-12T02:50:15.837Z,101134.25
2023-08-12T02:50:48.694Z,101130.50
2023-08-12T02:51:23.674Z,101131.47
2023-08-12T02:51:55.747Z,101129.56
2023-08-12T02:52:27.798Z,101132.09
2023-08-12T02:52:59.875Z,101127.63
2023-08-12T02:53:31.951Z,101131.09
2023-08-12T02:54:05.882Z,101128.47
2023-08-12T02:54:38.310Z,101132.19
2023-08-12T02:55:10.357Z,101130.16
2023-08-12T02:55:42.421Z,101132.78
2023-08-12T02:56:14.500Z,101131.00
2023-08-12T02:56:46.491Z,101135.31
2023-08-12T02:57:18.604Z,101131.94
2023-08-12T02:57:50.596Z,101136.53
2023-08-12T02:58:22.650Z,101134.94
2023-08-12T02:58:54.733Z,101133.31
2023-08-12T02:59:26.781Z,101135.22
2023-08-12T02:59:58.905Z,101131.13
2023-08-12T03:00:31.391Z,101136.53
2023-08-12T03:01:04.501Z,101139.56
2023-08-12T03:01:36.579Z,101138.84
2023-08-12T03:02:08.969Z,101132.00
2023-08-12T03:02:43.639Z,101138.34
2023-08-12T03:03:15.892Z,101135.84
2023-08-12T03:03:48.293Z,101127.34
2023-08-12T03:04:20.332Z,101134.53
2023-08-12T03:04:52.430Z,101132.84
2023-08-12T03:05:24.541Z,101135.47
2023-08-12T03:05:56.581Z,101137.16
2023-08-12T03:06:28.753Z,101132.84
2023-08-12T03:07:00.771Z,101131.03
2023-08-12T03:07:32.780Z,101138.25
2023-08-12T03:08:05.725Z,101137.41
2023-08-12T03:08:37.752Z,101137.53
2023-08-12T03:09:11.229Z,101135.97
2023-08-12T03:09:43.278Z,101136.44
2023-08-12T03:10:15.333Z,101143.78
2023-08-12T03:10:47.388Z,101135.16
2023-08-12T03:11:19.453Z,101137.06
2023-08-12T03:11:51.499Z,101139.94
2023-08-12T03:12:23.611Z,101142.91
2023-08-12T03:12:55.684Z,101137.03
2023-08-12T03:13:28.231Z,101141.59
2023-08-12T03:14:00.344Z,101145.66
2023-08-12T03:14:32.559Z,101154.91
2023-08-12T03:15:06.128Z,101143.25
2023-08-12T03:15:40.414Z,101141.22
2023-08-12T03:16:13.525Z,101145.06
2023-08-12T03:16:45.836Z,101144.81
2023-08-12T03:17:17.841Z,101141.31
2023-08-12T03:17:49.954Z,101147.44
2023-08-12T03:18:22.051Z,101145.91
2023-08-12T03:18:54.235Z,101140.63
2023-08-12T03:19:26.317Z,101145.06
2023-08-12T03:19:58.632Z,101146.94
2023-08-12T03:20:30.673Z,101145.41
2023-08-12T03:21:07.025Z,101151.03
2023-08-12T03:21:39.079Z,101150.41
2023-08-12T03:22:11.099Z,101149.72
2023-08-12T03:22:43.167Z,101148.97
2023-08-12T03:23:15.621Z,101146.22
2023-08-12T03:23:47.702Z,101143.69
2023-08-12T03:24:21.118Z,101148.03
2023-08-12T03:24:53.153Z,101151.50
2023-08-12T03:25:25.170Z,101145.50
2023-08-12T03:25:57.242Z,101148.03
2023-08-12T03:26:29.339Z,101144.44
2023-08-12T03:27:01.432Z,101152.22
2023-08-12T03:27:33.577Z,101146.22
2023-08-12T03:28:05.851Z,101151.72
2023-08-12T03:28:37.847Z,101152.69
2023-08-12T03:29:09.817Z,101147.88
2023-08-12T03:29:41.891Z,101151.16
2023-08-12T03:30:14.246Z,101147.53
2023-08-12T03:30:51.655Z,101146.47
2023-08-12T03:31:23.714Z,101145.50
2023-08-12T03:31:55.844Z,101145.41
2023-08-12T03:32:28.044Z,101147.94
2023-08-12T03:33:00.206Z,101154.16
2023-08-12T03:33:32.417Z,101149.72
2023-08-12T03:34:04.617Z,101158.22
2023-08-12T03:34:36.675Z,101151.78
2023-08-12T03:35:09.359Z,101149.84
2023-08-12T03:35:45.499Z,101152.38
2023-08-12T03:36:17.488Z,101145.53
2023-08-12T03:36:49.532Z,101150.22
2023-08-12T03:37:21.567Z,101154.50
2023-08-12T03:37:53.595Z,101156.81
2023-08-12T03:38:25.704Z,101167.94
2023-08-12T03:38:57.710Z,101157.53
2023-08-12T03:39:31.227Z,101161.84
2023-08-12T03:40:03.588Z,101152.25
2023-08-12T03:40:39.172Z,101159.09
2023-08-12T03:41:11.178Z,101164.84
2023-08-12T03:41:43.742Z,101159.44
2023-08-12T03:42:15.747Z,101159.44
2023-08-12T03:42:47.799Z,101161.03
2023-08-12T03:43:19.872Z,101160.03
2023-08-12T03:43:51.853Z,101162.56
2023-08-12T03:44:23.892Z,101167.59
2023-08-12T03:44:55.953Z,101163.78
2023-08-12T03:45:28.086Z,101163.91
2023-08-12T03:46:00.211Z,101163.78
2023-08-12T03:46:32.380Z,101163.78
2023-08-12T03:47:04.772Z,101166.41
2023-08-12T03:47:36.855Z,101169.78
2023-08-12T03:48:09.098Z,101166.19
2023-08-12T03:48:41.213Z,101168.84
2023-08-12T03:49:13.287Z,101162.81
2023-08-12T03:49:45.380Z,101166.06
2023-08-12T03:50:17.588Z,101168.84
2023-08-12T03:50:50.244Z,101166.31
2023-08-12T03:51:22.354Z,101165.34
2023-08-12T03:51:54.449Z,101166.66
2023-08-12T03:52:26.502Z,101159.00
2023-08-12T03:52:58.503Z,101160.44
2023-08-12T03:53:30.548Z,101166.56
2023-08-12T03:54:02.636Z,101166.56
2023-08-12T03:54:36.030Z,101166.41
2023-08-12T03:55:08.875Z,101163.69
2023-08-12T03:55:40.966Z,101154.69
2023-08-12T03:56:13.014Z,101165.03
2023-08-12T03:56:45.241Z,101164.78
2023-08-12T03:57:17.248Z,101163.00
2023-08-12T03:57:49.234Z,101167.06
2023-08-12T03:58:21.237Z,101169.69
2023-08-12T03:58:53.341Z,101170.19
2023-08-12T03:59:25.421Z,101168.25
2023-08-12T03:59:57.481Z,101168.00
2023-08-12T04:00:29.839Z,101171.25
2023-08-12T04:01:01.907Z,101159.03
2023-08-12T04:01:33.934Z,101166.69
2023-08-12T04:02:05.966Z,101172.94
2023-08-12T04:02:37.966Z,101172.81
2023-08-12T04:03:10.007Z,101173.41
2023-08-12T04:03:42.189Z,101168.97
2023-08-12T04:04:14.793Z,101173.16
2023-08-12T04:04:46.906Z,101172.78
2023-08-12T04:05:18.981Z,101168.34
2023-08-12T04:05:51.490Z,101179.75
2023-08-12T04:06:23.504Z,101169.91
2023-08-12T04:06:55.524Z,101171.34
2023-08-12T04:07:27.536Z,101175.56
2023-08-12T04:07:59.749Z,101170.97
2023-08-12T04:08:31.730Z,101175.31
2023-08-12T04:09:03.947Z,101172.78
2023-08-12T04:09:37.325Z,101176.72
2023-08-12T04:10:10.225Z,101167.72
2023-08-12T04:10:49.067Z,101179.59
2023-08-12T04:11:21.198Z,101174.91
2023-08-12T04:11:53.241Z,101175.59
2023-08-12T04:12:25.264Z,101170.09
2023-08-12T04:12:57.308Z,101172.59
2023-08-12T04:13:29.353Z,101175.97
2023-08-12T04:14:01.347Z,101174.03
2023-08-12T04:14:33.430Z,101175.59
2023-08-12T04:15:06.315Z,101180.75
2023-08-12T04:15:38.505Z,101172.69
2023-08-12T04:16:10.519Z,101177.03
2023-08-12T04:16:42.649Z,101173.66
2023-08-12T04:17:14.846Z,101174.50
2023-08-12T04:17:47.057Z,101175.34
2023-08-12T04:18:19.199Z,101174.59
2023-08-12T04:18:51.235Z,101174.50
2023-08-12T04:19:23.237Z,101178.81
2023-08-12T04:19:55.312Z,101177.13
2023-08-12T04:20:27.329Z,101183.84
2023-08-12T04:20:59.441Z,101177.34
2023-08-12T04:21:31.690Z,101184.31
2023-08-12T04:22:03.952Z,101184.19
2023-08-12T04:22:36.176Z,101180.47
2023-08-12T04:23:08.331Z,101185.59
2023-08-12T04:23:40.626Z,101184.91
2023-08-12T04:24:12.708Z,101187.28
2023-08-12T04:24:46.119Z,101182.84
2023-08-12T04:25:18.224Z,101185.34
2023-08-12T04:25:50.681Z,101186.91
2023-08-12T04:26:22.854Z,101192.91
2023-08-12T04:26:54.893Z,101185.81
2023-08-12T04:27:27.028Z,101190.25
2023-08-12T04:27:59.131Z,101190.25
2023-08-12T04:28:31.194Z,101192.91
2023-08-12T04:29:03.302Z,101191.09
2023-08-12T04:29:36.777Z,101190.16
2023-08-12T04:30:10.009Z,101182.59
2023-08-12T04:30:43.200Z,101186.91
2023-08-12T04:31:15.603Z,101190.41
2023-08-12T04:31:47.753Z,101189.56
2023-08-12T04:32:19.745Z,101185.97
2023-08-12T04:32:51.860Z,101185.97
2023-08-12T04:33:24.980Z,101186.78
2023-08-12T04:33:56.983Z,101192.31
2023-08-12T04:34:29.046Z,101187.75
2023-08-12T04:35:01.020Z,101192.31
2023-08-12T04:35:33.375Z,101189.41
2023-08-12T04:36:06.203Z,101184.97
2023-08-12T04:36:38.265Z,101190.41
2023-08-12T04:37:10.500Z,101190.41
2023-08-12T04:37:42.826Z,101187.63
2023-08-12T04:38:14.992Z,101187.50
2023-08-12T04:38:47.069Z,101190.03
2023-08-12T04:39:19.168Z,101186.28
2023-08-12T04:39:52.584Z,101188.66
2023-08-12T04:40:24.607Z,101195.53
2023-08-12T04:40:56.668Z,101193.59
2023-08-12T04:41:28.705Z,101194.53
2023-08-12T04:42:00.782Z,101191.56
2023-08-12T04:42:32.853Z,101194.81
2023-08-12T04:43:05.141Z,101189.63
2023-08-12T04:43:37.250Z,101201.78
2023-08-12T04:44:09.329Z,101193.69
2023-08-12T04:44:41.400Z,101196.13
2023-08-12T04:45:13.387Z,101198.75
2023-08-12T04:45:46.684Z,101197.19
2023-08-12T04:46:19.104Z,101199.84
2023-08-12T04:46:51.251Z,101197.78
2023-08-12T04:47:23.313Z,101189.72
2023-08-12T04:47:56.405Z,101194.38
2023-08-12T04:48:28.536Z,101193.16
2023-08-12T04:49:00.672Z,101192.91
2023-08-12T04:49:32.740Z,101191.84
2023-08-12T04:50:05.441Z,101188.09
2023-08-12T04:50:37.538Z,101195.91
2023-08-12T04:51:09.604Z,101193.38
2023-08-12T04:51:41.651Z,101190.63
2023-08-12T04:52:13.684Z,101195.53
2023-08-12T04:52:45.812Z,101188.41
2023-08-12T04:53:17.985Z,101190.94
2023-08-12T04:53:50.835Z,101193.31
2023-08-12T04:54:22.954Z,101197.53
2023-08-12T04:54:56.407Z,101194.72
2023-08-12T04:55:28.914Z,101199.06
2023-08-12T04:56:00.908Z,101193.78
2023-08-12T04:56:32.905Z,101197.97
2023-08-12T04:57:05.239Z,101191.69
2023-08-12T04:57:37.368Z,101201.06
2023-08-12T04:58:09.425Z,101191.69
2023-08-12T04:58:41.517Z,101197.56
2023-08-12T04:59:13.604Z,101200.94
2023-08-12T04:59:45.712Z,101194.53
2023-08-12T05:00:17.817Z,101201.63
2023-08-12T05:00:49.862Z,101196.22
2023-08-12T05:01:22.246Z,101192.63
2023-08-12T05:02:03.992Z,101191.78
2023-08-12T05:02:46.450Z,101202.38
2023-08-12T05:03:18.706Z,101200.41
2023-08-12T05:03:50.809Z,101197.66
2023-08-12T05:04:24.205Z,101195.84
2023-08-12T05:04:56.305Z,101201.72
2023-08-12T05:05:28.521Z,101199.06
2023-08-12T05:06:00.597Z,101202.41
2023-08-12T05:06:32.763Z,101200.59
2023-08-12T05:07:04.923Z,101198.78
2023-08-12T05:07:40.022Z,101204.34
2023-08-12T05:08:13.157Z,101200.88
2023-08-12T05:08:45.256Z,101199.44
2023-08-12T05:09:17.353Z,101202.47
2023-08-12T05:09:49.435Z,101203.22
2023-08-12T05:10:22.903Z,101202.47
2023-08-12T05:10:54.941Z,101200.78
2023-08-12T05:11:26.950Z,101200.22
2023-08-12T05:11:58.999Z,101200.47
2023-08-12T05:12:31.098Z,101200.38
2023-08-12T05:13:03.335Z,101199.25
2023-08-12T05:13:35.501Z,101198.41
2023-08-12T05:14:07.597Z,101197.44
2023-08-12T05:14:41.346Z,101201.78
2023-08-12T05:15:13.363Z,101200.78
2023-08-12T05:15:49.458Z,101198.41
2023-08-12T05:16:21.566Z,101200.59
2023-08-12T05:16:53.672Z,101206.03
2023-08-12T05:17:25.843Z,101202.41
2023-08-12T05:17:57.926Z,101201.59
2023-08-12T05:18:30.233Z,101204.09
2023-08-12T05:19:02.277Z,101199.53
2023-08-12T05:19:34.362Z,101203.00
2023-08-12T05:20:07.895Z,101196.72
2023-08-12T05:20:41.397Z,101203.97
2023-08-12T05:21:14.746Z,101205.50
2023-08-12T05:21:46.872Z,101205.06
2023-08-12T05:22:18.911Z,101201.97
2023-08-12T05:22:50.899Z,101199.66
2023-08-12T05:23:23.057Z,101207.31
2023-08-12T05:23:55.085Z,101202.16
2023-08-12T05:24:27.314Z,101199.53
2023-08-12T05:25:00.349Z,101201.91
2023-08-12T05:25:33.940Z,101203.31
2023-08-12T05:27:45.673Z,101194.91
2023-08-12T05:28:17.763Z,101208.59
2023-08-12T05:28:49.779Z,101204.00
2023-08-12T05:29:21.801Z,101197.88
2023-08-12T05:29:54.044Z,101203.72
2023-08-12T05:30:26.278Z,101201.69
2023-08-12T05:30:58.316Z,101198.88
2023-08-12T05:31:30.844Z,101198.63
2023-08-12T05:32:03.002Z,101200.19
2023-08-12T05:32:35.099Z,101197.25
2023-08-12T05:33:07.300Z,101198.66
2023-08-12T05:33:39.681Z,101196.03
2023-08-12T05:34:11.811Z,101200.66
2023-08-12T05:34:43.995Z,101197.59
2023-08-12T05:35:16.223Z,101202.63
2023-08-12T05:35:48.845Z,101196.25
2023-08-12T05:36:20.913Z,101201.84
2023-08-12T05:36:52.955Z,101192.53
2023-08-12T05:37:25.010Z,101195.03
2023-08-12T05:37:57.088Z,101193.94
2023-08-12T05:38:29.246Z,101193.66
2023-08-12T05:39:01.294Z,101199.53
2023-08-12T05:39:33.349Z,101201.75
2023-08-12T05:40:06.552Z,101202.22
2023-08-12T05:40:39.974Z,101201.81
2023-08-12T05:41:11.988Z,101197.78
2023-08-12T05:41:44.065Z,101194.72
2023-08-12T05:42:16.120Z,101192.63
2023-08-12T05:42:48.218Z,101193.06
2023-08-12T05:43:20.336Z,101196.97
2023-08-12T05:43:52.373Z,101198.22
2023-08-12T05:44:24.416Z,101199.63
2023-08-12T05:44:56.518Z,101195.72
2023-08-12T05:45:28.608Z,101195.44
2023-08-12T05:46:00.680Z,101197.81
2023-08-12T05:46:32.721Z,101202.69
2023-08-12T05:47:05.008Z,101197.81
2023-08-12T05:47:37.219Z,101191.53
2023-08-12T05:48:12.286Z,101197.53
2023-08-12T05:48:44.395Z,101201.59
2023-08-12T05:49:16.435Z,101196.28
2023-08-12T05:49:48.530Z,101196.84
2023-08-12T05:50:20.553Z,101196.69
2023-08-12T05:50:52.624Z,101192.75
2023-08-12T05:51:24.674Z,101193.19
2023-08-12T05:51:56.890Z,101191.63
2023-08-12T05:52:29.123Z,101198.50
2023-08-12T05:53:04.985Z,101191.06
2023-08-12T05:53:37.308Z,101194.94
2023-08-12T05:54:09.380Z,101193.84
2023-08-12T05:54:41.372Z,101197.09
2023-08-12T05:55:13.457Z,101194.84
2023-08-12T05:55:46.935Z,101188.94
2023-08-12T05:56:19.024Z,101196.19
2023-08-12T05:56:51.024Z,101196.59
2023-08-12T05:57:23.172Z,101198.66
2023-08-12T05:57:55.334Z,101198.75
2023-08-12T05:58:27.380Z,101191.34
2023-08-12T05:58:59.490Z,101194.41
2023-08-12T05:59:31.557Z,101191.44
2023-08-12T06:00:04.315Z,101195.66
2023-08-12T06:00:36.411Z,101195.34
2023-08-12T06:01:08.524Z,101180.25
2023-08-12T06:01:40.935Z,101187.03
2023-08-12T06:02:13.194Z,101189.53
2023-08-12T06:02:45.489Z,101192.88
2023-08-12T06:03:17.904Z,101190.31
2023-08-12T06:03:50.148Z,101196.19
2023-08-12T06:04:22.252Z,101186.91
2023-08-12T06:04:54.363Z,101191.78
2023-08-12T06:05:26.422Z,101187.72
2023-08-12T06:05:58.418Z,101190.41
2023-08-12T06:06:30.499Z,101190.19
2023-08-12T06:07:02.552Z,101189.56
2023-08-12T06:07:34.631Z,101193.00
2023-08-12T06:08:06.910Z,101191.22
2023-08-12T06:08:38.959Z,101197.09
2023-08-12T06:09:11.351Z,101196.47
2023-08-12T06:09:43.358Z,101196.56
2023-08-12T06:10:15.421Z,101202.25
2023-08-12T06:10:48.906Z,101190.16
2023-08-12T06:11:20.951Z,101190.22
2023-08-12T06:11:52.980Z,101191.94
2023-08-12T06:12:25.039Z,101192.00
2023-08-12T06:12:57.052Z,101190.25
2023-08-12T06:13:29.150Z,101191.13
2023-08-12T06:14:01.331Z,101190.00
2023-08-12T06:14:33.492Z,101193.03